sensor_id;sensor_type;location;lat;lon;timestamp;temperature;humidity
25825;DHT22;13658;44.534;18.694;2023-05-01T00:01:37;9.80;99.90
25825;DHT22;13658;44.534;18.694;2023-05-01T00:04:03;9.80;99.90
25825;DHT22;13658;44.534;18.694;2023-05-01T00:06:29;9.70;99.90
25825;DHT22;13658;44.534;18.694;2023-05-01T00:08:55;9.60;99.90
25825;DHT22;13658;44.534;18.694;2023-05-01T00:11:21;9.50;99.90
25825;DHT22;13658;44.534;18.694;2023-05-01T00:13:47;9.40;99.90
25825;DHT22;13658;44.534;18.694;2023-05-01T00:16:13;9.50;99.90
25825;DHT22;13658;44.534;18.694;2023-05-01T00:18:41;9.40;99.90
25825;DHT22;13658;44.534;18.694;2023-05-01T00:21:07;9.40;99.90
25825;DHT22;13658;44.534;18.694;2023-05-01T00:23:33;9.40;99.90
25825;DHT22;13658;44.534;18.694;2023-05-01T00:25:59;9.40;99.90
25825;DHT22;13658;44.534;18.694;2023-05-01T00:28:25;9.40;99.90
25825;DHT22;13658;44.534;18.694;2023-05-01T00:30:52;9.40;99.90
25825;DHT22;13658;44.534;18.694;2023-05-01T00:33:18;9.30;99.90
25825;DHT22;13658;44.534;18.694;2023-05-01T00:35:44;9.10;99.90
25825;DHT22;13658;44.534;18.694;2023-05-01T00:38:17;9.00;99.90
25825;DHT22;13658;44.534;18.694;2023-05-01T00:40:44;9.00;99.90
25825;DHT22;13658;44.534;18.694;2023-05-01T00:43:11;9.00;99.90
25825;DHT22;13658;44.534;18.694;2023-05-01T00:45:39;8.90;99.90
25825;DHT22;13658;44.534;18.694;2023-05-01T00:48:08;8.90;99.90
25825;DHT22;13658;44.534;18.694;2023-05-01T00:50:34;8.80;99.90
25825;DHT22;13658;44.534;18.694;2023-05-01T00:53:01;8.80;99.90
25825;DHT22;13658;44.534;18.694;2023-05-01T00:55:27;8.90;99.90
25825;DHT22;13658;44.534;18.694;2023-05-01T00:57:54;9.00;99.90
25825;DHT22;13658;44.534;18.694;2023-05-01T01:00:21;9.00;99.90
25825;DHT22;13658;44.534;18.694;2023-05-01T01:02:49;8.80;99.90
25825;DHT22;13658;44.534;18.694;2023-05-01T01:05:17;8.90;99.90
25825;DHT22;13658;44.534;18.694;2023-05-01T01:07:48;8.80;99.90
25825;DHT22;13658;44.534;18.694;2023-05-01T01:10:24;8.80;99.90
25825;DHT22;13658;44.534;18.694;2023-05-01T01:15:34;8.80;99.90
25825;DHT22;13658;44.534;18.694;2023-05-01T01:18:11;8.80;99.90
25825;DHT22;13658;44.534;18.694;2023-05-01T01:32:55;8.30;99.90
25825;DHT22;13658;44.534;18.694;2023-05-01T01:35:26;8.20;99.90
25825;DHT22;13658;44.534;18.694;2023-05-01T01:38:08;8.10;99.90
25825;DHT22;13658;44.534;18.694;2023-05-01T01:40:44;8.00;99.90
25825;DHT22;13658;44.534;18.694;2023-05-01T01:43:16;7.90;99.90
25825;DHT22;13658;44.534;18.694;2023-05-01T01:45:46;8.00;99.90
25825;DHT22;13658;44.534;18.694;2023-05-01T01:48:16;7.90;99.90
25825;DHT22;13658;44.534;18.694;2023-05-01T01:50:44;7.80;99.90
25825;DHT22;13658;44.534;18.694;2023-05-01T01:53:15;7.80;99.90
25825;DHT22;13658;44.534;18.694;2023-05-01T01:55:44;7.80;99.90
25825;DHT22;13658;44.534;18.694;2023-05-01T01:58:12;7.80;99.90
25825;DHT22;13658;44.534;18.694;2023-05-01T02:00:44;7.80;99.90
25825;DHT22;13658;44.534;18.694;2023-05-01T02:03:12;7.90;99.90
25825;DHT22;13658;44.534;18.694;2023-05-01T02:05:39;7.90;99.90
25825;DHT22;13658;44.534;18.694;2023-05-01T02:08:07;7.90;99.90
25825;DHT22;13658;44.534;18.694;2023-05-01T02:10:35;7.90;99.90
25825;DHT22;13658;44.534;18.694;2023-05-01T02:13:03;7.90;99.90
25825;DHT22;13658;44.534;18.694;2023-05-01T02:15:31;7.80;99.90
25825;DHT22;13658;44.534;18.694;2023-05-01T02:18:02;7.70;99.90
25825;DHT22;13658;44.534;18.694;2023-05-01T02:20:29;7.80;99.90
25825;DHT22;13658;44.534;18.694;2023-05-01T02:22:56;7.90;99.90
25825;DHT22;13658;44.534;18.694;2023-05-01T02:25:23;7.90;99.90
25825;DHT22;13658;44.534;18.694;2023-05-01T02:27:55;7.80;99.90
25825;DHT22;13658;44.534;18.694;2023-05-01T02:30:22;7.70;99.90
25825;DHT22;13658;44.534;18.694;2023-05-01T02:32:48;7.60;99.90
25825;DHT22;13658;44.534;18.694;2023-05-01T02:35:14;7.50;99.90
25825;DHT22;13658;44.534;18.694;2023-05-01T02:37:42;7.40;99.90
25825;DHT22;13658;44.534;18.694;2023-05-01T02:40:11;7.30;99.90
25825;DHT22;13658;44.534;18.694;2023-05-01T02:42:42;7.20;99.90
25825;DHT22;13658;44.534;18.694;2023-05-01T02:45:16;7.20;99.90
25825;DHT22;13658;44.534;18.694;2023-05-01T02:47:45;7.20;99.90
25825;DHT22;13658;44.534;18.694;2023-05-01T02:50:14;7.30;99.90
25825;DHT22;13658;44.534;18.694;2023-05-01T02:52:41;7.40;99.90
25825;DHT22;13658;44.534;18.694;2023-05-01T02:55:28;7.40;99.90
25825;DHT22;13658;44.534;18.694;2023-05-01T02:57:58;7.50;99.90
25825;DHT22;13658;44.534;18.694;2023-05-01T03:00:25;7.50;99.90
25825;DHT22;13658;44.534;18.694;2023-05-01T03:02:52;7.40;99.90
25825;DHT22;13658;44.534;18.694;2023-05-01T03:05:18;7.30;99.90
25825;DHT22;13658;44.534;18.694;2023-05-01T03:07:45;7.30;99.90
25825;DHT22;13658;44.534;18.694;2023-05-01T03:10:12;7.20;99.90
25825;DHT22;13658;44.534;18.694;2023-05-01T03:12:39;7.20;99.90
25825;DHT22;13658;44.534;18.694;2023-05-01T03:15:05;7.10;99.90
25825;DHT22;13658;44.534;18.694;2023-05-01T03:17:31;7.20;99.90
25825;DHT22;13658;44.534;18.694;2023-05-01T03:19:58;7.20;99.90
25825;DHT22;13658;44.534;18.694;2023-05-01T03:22:28;7.30;99.90
25825;DHT22;13658;44.534;18.694;2023-05-01T03:24:54;7.30;99.90
25825;DHT22;13658;44.534;18.694;2023-05-01T03:27:20;7.30;99.90
25825;DHT22;13658;44.534;18.694;2023-05-01T03:29:46;7.20;99.90
25825;DHT22;13658;44.534;18.694;2023-05-01T03:32:12;7.20;99.90
25825;DHT22;13658;44.534;18.694;2023-05-01T03:34:38;7.20;99.90
25825;DHT22;13658;44.534;18.694;2023-05-01T03:37:05;7.20;99.90
25825;DHT22;13658;44.534;18.694;2023-05-01T03:39:31;7.20;99.90
25825;DHT22;13658;44.534;18.694;2023-05-01T03:42:15;7.20;99.90
25825;DHT22;13658;44.534;18.694;2023-05-01T03:44:43;7.00;99.90
25825;DHT22;13658;44.534;18.694;2023-05-01T03:47:09;6.80;99.90
25825;DHT22;13658;44.534;18.694;2023-05-01T03:49:39;6.80;99.90
25825;DHT22;13658;44.534;18.694;2023-05-01T03:52:09;6.70;99.90
25825;DHT22;13658;44.534;18.694;2023-05-01T03:54:37;6.70;99.90
25825;DHT22;13658;44.534;18.694;2023-05-01T03:57:38;6.70;99.90
25825;DHT22;13658;44.534;18.694;2023-05-01T04:00:05;6.80;99.90
25825;DHT22;13658;44.534;18.694;2023-05-01T04:02:40;6.80;99.90
25825;DHT22;13658;44.534;18.694;2023-05-01T04:05:10;6.80;99.90
25825;DHT22;13658;44.534;18.694;2023-05-01T04:07:38;6.90;99.90
25825;DHT22;13658;44.534;18.694;2023-05-01T04:10:06;6.90;99.90
25825;DHT22;13658;44.534;18.694;2023-05-01T04:12:34;6.90;99.90
25825;DHT22;13658;44.534;18.694;2023-05-01T04:15:02;7.00;99.90
25825;DHT22;13658;44.534;18.694;2023-05-01T04:17:29;7.00;99.90
25825;DHT22;13658;44.534;18.694;2023-05-01T04:19:55;7.00;99.90
25825;DHT22;13658;44.534;18.694;2023-05-01T04:22:21;7.00;99.90
25825;DHT22;13658;44.534;18.694;2023-05-01T04:24:48;7.00;99.90
25825;DHT22;13658;44.534;18.694;2023-05-01T04:27:14;7.10;99.90
25825;DHT22;13658;44.534;18.694;2023-05-01T04:29:40;7.40;99.90
25825;DHT22;13658;44.534;18.694;2023-05-01T04:32:08;7.50;99.90
25825;DHT22;13658;44.534;18.694;2023-05-01T04:34:34;7.60;99.90
25825;DHT22;13658;44.534;18.694;2023-05-01T04:37:00;7.80;99.90
25825;DHT22;13658;44.534;18.694;2023-05-01T04:39:28;8.00;99.90
25825;DHT22;13658;44.534;18.694;2023-05-01T04:41:55;8.20;99.90
25825;DHT22;13658;44.534;18.694;2023-05-01T04:44:22;8.20;99.90
25825;DHT22;13658;44.534;18.694;2023-05-01T04:46:48;8.40;99.90
25825;DHT22;13658;44.534;18.694;2023-05-01T04:49:14;8.60;99.90
25825;DHT22;13658;44.534;18.694;2023-05-01T04:51:42;8.80;99.90
25825;DHT22;13658;44.534;18.694;2023-05-01T04:54:11;9.00;99.90
25825;DHT22;13658;44.534;18.694;2023-05-01T04:56:39;9.30;99.90
25825;DHT22;13658;44.534;18.694;2023-05-01T04:59:05;9.50;99.90
25825;DHT22;13658;44.534;18.694;2023-05-01T05:01:31;9.80;99.90
25825;DHT22;13658;44.534;18.694;2023-05-01T05:03:57;10.00;99.90
25825;DHT22;13658;44.534;18.694;2023-05-01T05:06:23;10.30;99.90
25825;DHT22;13658;44.534;18.694;2023-05-01T05:08:49;10.40;99.90
25825;DHT22;13658;44.534;18.694;2023-05-01T05:11:18;10.90;99.90
25825;DHT22;13658;44.534;18.694;2023-05-01T05:13:59;11.30;99.90
25825;DHT22;13658;44.534;18.694;2023-05-01T05:16:25;11.70;99.90
25825;DHT22;13658;44.534;18.694;2023-05-01T05:18:54;12.00;99.90
25825;DHT22;13658;44.534;18.694;2023-05-01T05:21:21;12.30;99.90
25825;DHT22;13658;44.534;18.694;2023-05-01T05:23:51;12.40;99.90
25825;DHT22;13658;44.534;18.694;2023-05-01T05:26:17;12.50;99.90
25825;DHT22;13658;44.534;18.694;2023-05-01T05:28:43;12.40;99.90
25825;DHT22;13658;44.534;18.694;2023-05-01T05:31:10;12.50;99.90
25825;DHT22;13658;44.534;18.694;2023-05-01T05:33:36;12.40;99.90
25825;DHT22;13658;44.534;18.694;2023-05-01T05:36:03;12.40;99.90
25825;DHT22;13658;44.534;18.694;2023-05-01T05:38:35;12.20;99.90
25825;DHT22;13658;44.534;18.694;2023-05-01T05:41:04;12.70;99.90
25825;DHT22;13658;44.534;18.694;2023-05-01T05:43:31;13.00;99.90
25825;DHT22;13658;44.534;18.694;2023-05-01T05:45:58;13.30;99.90
25825;DHT22;13658;44.534;18.694;2023-05-01T05:48:25;13.80;99.90
25825;DHT22;13658;44.534;18.694;2023-05-01T05:50:51;14.10;99.90
25825;DHT22;13658;44.534;18.694;2023-05-01T05:53:21;14.60;99.90
25825;DHT22;13658;44.534;18.694;2023-05-01T05:55:47;15.00;99.90
25825;DHT22;13658;44.534;18.694;2023-05-01T05:58:14;15.30;99.90
25825;DHT22;13658;44.534;18.694;2023-05-01T06:00:50;15.80;99.90
25825;DHT22;13658;44.534;18.694;2023-05-01T06:03:18;16.30;99.90
25825;DHT22;13658;44.534;18.694;2023-05-01T06:05:44;16.70;99.90
25825;DHT22;13658;44.534;18.694;2023-05-01T06:08:11;17.00;99.90
25825;DHT22;13658;44.534;18.694;2023-05-01T06:10:41;17.10;99.90
25825;DHT22;13658;44.534;18.694;2023-05-01T06:13:07;17.20;99.90
25825;DHT22;13658;44.534;18.694;2023-05-01T06:15:35;17.50;99.90
25825;DHT22;13658;44.534;18.694;2023-05-01T06:18:02;17.60;99.90
25825;DHT22;13658;44.534;18.694;2023-05-01T06:20:28;18.10;99.90
25825;DHT22;13658;44.534;18.694;2023-05-01T06:22:55;18.00;99.90
25825;DHT22;13658;44.534;18.694;2023-05-01T06:25:27;18.20;99.90
25825;DHT22;13658;44.534;18.694;2023-05-01T06:27:53;18.80;99.90
25825;DHT22;13658;44.534;18.694;2023-05-01T06:30:21;18.70;99.90
25825;DHT22;13658;44.534;18.694;2023-05-01T06:32:47;19.30;99.90
25825;DHT22;13658;44.534;18.694;2023-05-01T06:35:15;19.70;99.90
25825;DHT22;13658;44.534;18.694;2023-05-01T06:37:41;20.00;99.90
25825;DHT22;13658;44.534;18.694;2023-05-01T06:40:09;19.80;99.90
25825;DHT22;13658;44.534;18.694;2023-05-01T06:42:37;20.10;99.90
25825;DHT22;13658;44.534;18.694;2023-05-01T06:45:04;19.90;99.90
25825;DHT22;13658;44.534;18.694;2023-05-01T06:47:30;20.40;99.90
25825;DHT22;13658;44.534;18.694;2023-05-01T06:49:56;20.40;99.90
25825;DHT22;13658;44.534;18.694;2023-05-01T06:52:22;20.30;99.90
25825;DHT22;13658;44.534;18.694;2023-05-01T06:54:48;20.50;99.90
25825;DHT22;13658;44.534;18.694;2023-05-01T06:57:14;21.00;99.90
25825;DHT22;13658;44.534;18.694;2023-05-01T06:59:39;21.00;99.90
25825;DHT22;13658;44.534;18.694;2023-05-01T07:02:06;21.30;99.90
25825;DHT22;13658;44.534;18.694;2023-05-01T07:04:32;22.10;99.90
25825;DHT22;13658;44.534;18.694;2023-05-01T07:06:58;22.00;99.90
25825;DHT22;13658;44.534;18.694;2023-05-01T07:09:25;22.30;99.90
25825;DHT22;13658;44.534;18.694;2023-05-01T07:11:51;22.10;99.90
25825;DHT22;13658;44.534;18.694;2023-05-01T07:14:17;22.40;99.90
25825;DHT22;13658;44.534;18.694;2023-05-01T07:16:43;22.70;99.90
25825;DHT22;13658;44.534;18.694;2023-05-01T07:19:10;23.40;99.90
25825;DHT22;13658;44.534;18.694;2023-05-01T07:21:39;23.80;99.90
25825;DHT22;13658;44.534;18.694;2023-05-01T07:24:06;23.90;99.90
25825;DHT22;13658;44.534;18.694;2023-05-01T07:26:32;23.70;99.90
25825;DHT22;13658;44.534;18.694;2023-05-01T07:28:58;24.30;99.90
25825;DHT22;13658;44.534;18.694;2023-05-01T07:31:24;24.40;99.90
25825;DHT22;13658;44.534;18.694;2023-05-01T07:33:50;25.10;99.90
25825;DHT22;13658;44.534;18.694;2023-05-01T07:36:16;25.90;99.90
25825;DHT22;13658;44.534;18.694;2023-05-01T07:38:45;26.80;99.90
25825;DHT22;13658;44.534;18.694;2023-05-01T07:41:10;26.20;99.90
25825;DHT22;13658;44.534;18.694;2023-05-01T07:43:36;25.90;99.90
25825;DHT22;13658;44.534;18.694;2023-05-01T07:46:02;26.50;99.90
25825;DHT22;13658;44.534;18.694;2023-05-01T07:48:28;27.20;99.90
25825;DHT22;13658;44.534;18.694;2023-05-01T07:50:54;27.10;99.90
25825;DHT22;13658;44.534;18.694;2023-05-01T07:53:21;27.70;99.90
25825;DHT22;13658;44.534;18.694;2023-05-01T07:55:48;27.70;99.90
25825;DHT22;13658;44.534;18.694;2023-05-01T07:58:14;27.90;99.90
25825;DHT22;13658;44.534;18.694;2023-05-01T08:00:41;26.40;99.90
25825;DHT22;13658;44.534;18.694;2023-05-01T08:03:10;26.10;99.90
25825;DHT22;13658;44.534;18.694;2023-05-01T08:05:39;26.70;99.90
25825;DHT22;13658;44.534;18.694;2023-05-01T08:08:06;26.80;99.90
25825;DHT22;13658;44.534;18.694;2023-05-01T08:10:32;26.70;99.90
25825;DHT22;13658;44.534;18.694;2023-05-01T08:12:58;26.90;99.90
25825;DHT22;13658;44.534;18.694;2023-05-01T08:15:24;28.20;99.90
25825;DHT22;13658;44.534;18.694;2023-05-01T08:17:49;28.80;99.90
25825;DHT22;13658;44.534;18.694;2023-05-01T08:20:16;28.80;99.90
25825;DHT22;13658;44.534;18.694;2023-05-01T08:22:42;29.90;99.90
25825;DHT22;13658;44.534;18.694;2023-05-01T08:25:08;29.80;99.90
25825;DHT22;13658;44.534;18.694;2023-05-01T08:27:34;28.10;99.90
25825;DHT22;13658;44.534;18.694;2023-05-01T08:30:00;28.00;99.90
25825;DHT22;13658;44.534;18.694;2023-05-01T08:32:26;28.50;99.90
25825;DHT22;13658;44.534;18.694;2023-05-01T08:34:52;28.40;99.90
25825;DHT22;13658;44.534;18.694;2023-05-01T08:37:17;28.80;99.90
25825;DHT22;13658;44.534;18.694;2023-05-01T08:39:44;28.50;99.90
25825;DHT22;13658;44.534;18.694;2023-05-01T08:42:10;28.30;99.90
25825;DHT22;13658;44.534;18.694;2023-05-01T08:44:40;29.20;99.90
25825;DHT22;13658;44.534;18.694;2023-05-01T08:47:09;29.90;99.90
25825;DHT22;13658;44.534;18.694;2023-05-01T08:49:38;30.40;99.90
25825;DHT22;13658;44.534;18.694;2023-05-01T08:52:05;29.00;99.90
25825;DHT22;13658;44.534;18.694;2023-05-01T08:54:32;29.00;99.90
25825;DHT22;13658;44.534;18.694;2023-05-01T08:57:02;29.30;99.90
25825;DHT22;13658;44.534;18.694;2023-05-01T08:59:33;29.10;99.90
25825;DHT22;13658;44.534;18.694;2023-05-01T09:02:00;28.70;99.90
25825;DHT22;13658;44.534;18.694;2023-05-01T09:04:34;28.60;99.90
25825;DHT22;13658;44.534;18.694;2023-05-01T09:07:01;28.90;99.90
25825;DHT22;13658;44.534;18.694;2023-05-01T09:09:28;28.60;99.90
25825;DHT22;13658;44.534;18.694;2023-05-01T09:12:00;28.30;99.90
25825;DHT22;13658;44.534;18.694;2023-05-01T09:14:31;28.40;99.90
25825;DHT22;13658;44.534;18.694;2023-05-01T09:16:58;28.50;99.90
25825;DHT22;13658;44.534;18.694;2023-05-01T09:19:25;29.30;99.90
25825;DHT22;13658;44.534;18.694;2023-05-01T09:21:52;29.00;99.90
25825;DHT22;13658;44.534;18.694;2023-05-01T09:24:41;29.50;99.90
25825;DHT22;13658;44.534;18.694;2023-05-01T09:30:48;29.50;99.90
25825;DHT22;13658;44.534;18.694;2023-05-01T09:33:15;30.20;99.90
25825;DHT22;13658;44.534;18.694;2023-05-01T09:35:56;30.10;99.90
25825;DHT22;13658;44.534;18.694;2023-05-01T09:38:25;30.80;99.90
25825;DHT22;13658;44.534;18.694;2023-05-01T09:40:53;30.20;99.90
25825;DHT22;13658;44.534;18.694;2023-05-01T09:43:26;30.30;99.90
25825;DHT22;13658;44.534;18.694;2023-05-01T09:46:00;29.30;99.90
25825;DHT22;13658;44.534;18.694;2023-05-01T09:48:26;28.90;99.90
25825;DHT22;13658;44.534;18.694;2023-05-01T09:50:52;29.00;99.90
25825;DHT22;13658;44.534;18.694;2023-05-01T09:53:18;28.80;99.90
25825;DHT22;13658;44.534;18.694;2023-05-01T09:55:59;28.50;99.90
25825;DHT22;13658;44.534;18.694;2023-05-01T09:58:26;27.90;99.90
25825;DHT22;13658;44.534;18.694;2023-05-01T10:00:52;26.90;99.90
25825;DHT22;13658;44.534;18.694;2023-05-01T10:03:18;26.80;99.90
25825;DHT22;13658;44.534;18.694;2023-05-01T10:05:45;26.80;99.90
25825;DHT22;13658;44.534;18.694;2023-05-01T10:08:11;27.10;99.90
25825;DHT22;13658;44.534;18.694;2023-05-01T10:10:43;26.70;99.90
25825;DHT22;13658;44.534;18.694;2023-05-01T10:13:24;26.90;99.90
25825;DHT22;13658;44.534;18.694;2023-05-01T10:15:49;27.00;99.90
25825;DHT22;13658;44.534;18.694;2023-05-01T10:18:16;27.50;99.90
25825;DHT22;13658;44.534;18.694;2023-05-01T10:20:42;27.70;99.90
25825;DHT22;13658;44.534;18.694;2023-05-01T10:23:09;27.70;99.90
25825;DHT22;13658;44.534;18.694;2023-05-01T10:25:36;27.10;99.90
25825;DHT22;13658;44.534;18.694;2023-05-01T10:28:03;27.00;99.90
25825;DHT22;13658;44.534;18.694;2023-05-01T10:30:29;27.30;99.90
25825;DHT22;13658;44.534;18.694;2023-05-01T10:32:57;27.60;99.90
25825;DHT22;13658;44.534;18.694;2023-05-01T10:35:33;27.80;99.90
25825;DHT22;13658;44.534;18.694;2023-05-01T10:38:12;27.90;99.90
25825;DHT22;13658;44.534;18.694;2023-05-01T10:40:44;28.70;99.90
25825;DHT22;13658;44.534;18.694;2023-05-01T10:43:30;29.30;99.90
25825;DHT22;13658;44.534;18.694;2023-05-01T10:51:16;27.80;99.90
25825;DHT22;13658;44.534;18.694;2023-05-01T10:53:44;26.70;99.90
25825;DHT22;13658;44.534;18.694;2023-05-01T10:59:01;24.90;99.90
25825;DHT22;13658;44.534;18.694;2023-05-01T11:01:32;24.70;99.90
25825;DHT22;13658;44.534;18.694;2023-05-01T11:06:34;23.90;99.90
25825;DHT22;13658;44.534;18.694;2023-05-01T11:09:01;23.60;99.90
25825;DHT22;13658;44.534;18.694;2023-05-01T11:11:47;23.60;99.90
25825;DHT22;13658;44.534;18.694;2023-05-01T11:14:14;23.50;99.90
25825;DHT22;13658;44.534;18.694;2023-05-01T11:16:42;23.00;99.90
25825;DHT22;13658;44.534;18.694;2023-05-01T11:22:00;22.50;99.90
25825;DHT22;13658;44.534;18.694;2023-05-01T11:24:31;22.30;99.90
25825;DHT22;13658;44.534;18.694;2023-05-01T11:26:57;22.50;99.90
25825;DHT22;13658;44.534;18.694;2023-05-01T11:29:32;22.70;99.90
25825;DHT22;13658;44.534;18.694;2023-05-01T11:32:00;22.70;99.90
25825;DHT22;13658;44.534;18.694;2023-05-01T11:34:26;22.70;99.90
25825;DHT22;13658;44.534;18.694;2023-05-01T11:36:52;22.60;99.90
25825;DHT22;13658;44.534;18.694;2023-05-01T11:39:18;22.80;99.90
25825;DHT22;13658;44.534;18.694;2023-05-01T11:41:45;22.70;99.90
25825;DHT22;13658;44.534;18.694;2023-05-01T11:44:18;22.80;99.90
25825;DHT22;13658;44.534;18.694;2023-05-01T11:46:46;22.80;99.90
25825;DHT22;13658;44.534;18.694;2023-05-01T11:49:26;22.70;99.90
25825;DHT22;13658;44.534;18.694;2023-05-01T11:51:56;23.00;99.90
25825;DHT22;13658;44.534;18.694;2023-05-01T11:54:23;22.90;99.90
25825;DHT22;13658;44.534;18.694;2023-05-01T11:56:59;23.00;99.90
25825;DHT22;13658;44.534;18.694;2023-05-01T11:59:28;23.10;99.90
25825;DHT22;13658;44.534;18.694;2023-05-01T12:01:56;22.90;99.90
25825;DHT22;13658;44.534;18.694;2023-05-01T12:04:25;22.80;99.90
25825;DHT22;13658;44.534;18.694;2023-05-01T12:06:52;22.70;99.90
25825;DHT22;13658;44.534;18.694;2023-05-01T12:09:20;22.60;99.90
25825;DHT22;13658;44.534;18.694;2023-05-01T12:11:49;22.60;99.90
25825;DHT22;13658;44.534;18.694;2023-05-01T12:14:16;22.70;99.90
25825;DHT22;13658;44.534;18.694;2023-05-01T12:16:44;22.60;99.90
25825;DHT22;13658;44.534;18.694;2023-05-01T12:19:12;22.80;99.90
25825;DHT22;13658;44.534;18.694;2023-05-01T12:21:39;22.80;99.90
25825;DHT22;13658;44.534;18.694;2023-05-01T12:24:12;22.80;99.90
25825;DHT22;13658;44.534;18.694;2023-05-01T12:26:45;22.80;99.90
25825;DHT22;13658;44.534;18.694;2023-05-01T12:29:11;22.80;99.90
25825;DHT22;13658;44.534;18.694;2023-05-01T12:31:48;22.90;99.90
25825;DHT22;13658;44.534;18.694;2023-05-01T12:34:14;22.90;99.90
25825;DHT22;13658;44.534;18.694;2023-05-01T12:36:40;22.90;99.90
25825;DHT22;13658;44.534;18.694;2023-05-01T12:39:10;22.90;99.90
25825;DHT22;13658;44.534;18.694;2023-05-01T12:41:47;22.80;99.90
25825;DHT22;13658;44.534;18.694;2023-05-01T12:46:44;22.70;99.90
25825;DHT22;13658;44.534;18.694;2023-05-01T12:49:17;22.80;99.90
25825;DHT22;13658;44.534;18.694;2023-05-01T12:51:47;22.80;99.90
25825;DHT22;13658;44.534;18.694;2023-05-01T12:54:38;22.80;99.90
25825;DHT22;13658;44.534;18.694;2023-05-01T12:57:09;22.80;99.90
25825;DHT22;13658;44.534;18.694;2023-05-01T12:59:37;22.70;99.90
25825;DHT22;13658;44.534;18.694;2023-05-01T13:02:06;22.70;99.90
25825;DHT22;13658;44.534;18.694;2023-05-01T13:04:34;22.60;99.90
25825;DHT22;13658;44.534;18.694;2023-05-01T13:07:00;22.70;99.90
25825;DHT22;13658;44.534;18.694;2023-05-01T13:09:28;22.80;99.90
25825;DHT22;13658;44.534;18.694;2023-05-01T13:11:57;22.80;99.90
25825;DHT22;13658;44.534;18.694;2023-05-01T13:14:24;22.90;99.90
25825;DHT22;13658;44.534;18.694;2023-05-01T13:16:51;23.00;99.90
25825;DHT22;13658;44.534;18.694;2023-05-01T13:19:24;22.90;99.90
25825;DHT22;13658;44.534;18.694;2023-05-01T13:21:55;22.70;99.90
25825;DHT22;13658;44.534;18.694;2023-05-01T13:24:21;22.70;99.90
25825;DHT22;13658;44.534;18.694;2023-05-01T13:26:55;22.60;99.90
25825;DHT22;13658;44.534;18.694;2023-05-01T13:29:24;22.70;99.90
25825;DHT22;13658;44.534;18.694;2023-05-01T13:31:51;22.70;99.90
25825;DHT22;13658;44.534;18.694;2023-05-01T13:34:24;22.60;99.90
25825;DHT22;13658;44.534;18.694;2023-05-01T13:36:54;22.50;99.90
25825;DHT22;13658;44.534;18.694;2023-05-01T13:39:20;22.50;99.90
25825;DHT22;13658;44.534;18.694;2023-05-01T13:41:46;22.40;99.90
25825;DHT22;13658;44.534;18.694;2023-05-01T13:44:12;22.30;99.90
25825;DHT22;13658;44.534;18.694;2023-05-01T13:46:40;22.30;99.90
25825;DHT22;13658;44.534;18.694;2023-05-01T13:49:09;22.30;99.90
25825;DHT22;13658;44.534;18.694;2023-05-01T13:51:40;22.20;99.90
25825;DHT22;13658;44.534;18.694;2023-05-01T13:54:11;22.30;99.90
25825;DHT22;13658;44.534;18.694;2023-05-01T13:56:39;22.40;99.90
25825;DHT22;13658;44.534;18.694;2023-05-01T13:59:07;22.40;99.90
25825;DHT22;13658;44.534;18.694;2023-05-01T14:01:40;22.30;99.90
25825;DHT22;13658;44.534;18.694;2023-05-01T14:04:08;22.30;99.90
25825;DHT22;13658;44.534;18.694;2023-05-01T14:06:40;22.30;99.90
25825;DHT22;13658;44.534;18.694;2023-05-01T14:09:08;22.40;99.90
25825;DHT22;13658;44.534;18.694;2023-05-01T14:11:42;22.40;99.90
25825;DHT22;13658;44.534;18.694;2023-05-01T14:14:08;22.40;99.90
25825;DHT22;13658;44.534;18.694;2023-05-01T14:16:34;22.40;99.90
25825;DHT22;13658;44.534;18.694;2023-05-01T14:19:00;22.40;99.90
25825;DHT22;13658;44.534;18.694;2023-05-01T14:21:26;22.50;99.90
25825;DHT22;13658;44.534;18.694;2023-05-01T14:23:53;22.40;99.90
25825;DHT22;13658;44.534;18.694;2023-05-01T14:26:20;22.30;99.90
25825;DHT22;13658;44.534;18.694;2023-05-01T14:28:48;22.30;99.90
25825;DHT22;13658;44.534;18.694;2023-05-01T14:31:24;22.30;99.90
25825;DHT22;13658;44.534;18.694;2023-05-01T14:34:02;22.10;99.90
25825;DHT22;13658;44.534;18.694;2023-05-01T14:36:29;22.00;99.90
25825;DHT22;13658;44.534;18.694;2023-05-01T14:38:59;22.10;99.90
25825;DHT22;13658;44.534;18.694;2023-05-01T14:41:25;22.10;99.90
25825;DHT22;13658;44.534;18.694;2023-05-01T14:43:52;22.00;99.90
25825;DHT22;13658;44.534;18.694;2023-05-01T14:46:45;22.00;99.90
25825;DHT22;13658;44.534;18.694;2023-05-01T14:49:19;22.10;99.90
25825;DHT22;13658;44.534;18.694;2023-05-01T14:51:46;22.00;99.90
25825;DHT22;13658;44.534;18.694;2023-05-01T14:54:13;22.00;99.90
25825;DHT22;13658;44.534;18.694;2023-05-01T14:56:41;22.00;99.90
25825;DHT22;13658;44.534;18.694;2023-05-01T14:59:07;22.00;99.90
25825;DHT22;13658;44.534;18.694;2023-05-01T15:01:33;21.90;99.90
25825;DHT22;13658;44.534;18.694;2023-05-01T15:03:59;21.90;99.90
25825;DHT22;13658;44.534;18.694;2023-05-01T15:06:25;22.00;99.90
25825;DHT22;13658;44.534;18.694;2023-05-01T15:08:52;21.90;99.90
25825;DHT22;13658;44.534;18.694;2023-05-01T15:11:18;21.90;99.90
25825;DHT22;13658;44.534;18.694;2023-05-01T15:13:46;21.90;99.90
25825;DHT22;13658;44.534;18.694;2023-05-01T15:16:14;22.00;99.90
25825;DHT22;13658;44.534;18.694;2023-05-01T15:18:40;22.00;99.90
25825;DHT22;13658;44.534;18.694;2023-05-01T15:21:06;22.10;99.90
25825;DHT22;13658;44.534;18.694;2023-05-01T15:23:32;22.00;99.90
25825;DHT22;13658;44.534;18.694;2023-05-01T15:25:58;22.00;99.90
25825;DHT22;13658;44.534;18.694;2023-05-01T15:28:25;22.10;99.90
25825;DHT22;13658;44.534;18.694;2023-05-01T15:30:51;21.90;99.90
25825;DHT22;13658;44.534;18.694;2023-05-01T15:33:18;21.90;99.90
25825;DHT22;13658;44.534;18.694;2023-05-01T15:35:45;21.90;99.90
25825;DHT22;13658;44.534;18.694;2023-05-01T15:38:11;21.90;99.90
25825;DHT22;13658;44.534;18.694;2023-05-01T15:40:37;21.80;99.90
25825;DHT22;13658;44.534;18.694;2023-05-01T15:43:04;21.70;99.90
25825;DHT22;13658;44.534;18.694;2023-05-01T15:45:31;21.80;99.90
25825;DHT22;13658;44.534;18.694;2023-05-01T15:47:57;21.90;99.90
25825;DHT22;13658;44.534;18.694;2023-05-01T15:50:23;21.80;99.90
25825;DHT22;13658;44.534;18.694;2023-05-01T15:52:50;22.00;99.90
25825;DHT22;13658;44.534;18.694;2023-05-01T15:55:17;22.00;99.90
25825;DHT22;13658;44.534;18.694;2023-05-01T15:57:46;22.00;99.90
25825;DHT22;13658;44.534;18.694;2023-05-01T16:00:14;22.20;99.90
25825;DHT22;13658;44.534;18.694;2023-05-01T16:02:42;22.10;99.90